sensor_id;sensor_type;location;lat;lon;timestamp;P1;durP1;ratioP1;P2;durP2;ratioP2
79126;SDS011;68528;48.814;8.904;2023-10-08T00:01:49;6.88;;;2.40;;
79126;SDS011;68528;48.814;8.904;2023-10-08T00:04:18;7.43;;;2.08;;
79126;SDS011;68528;48.814;8.904;2023-10-08T00:10:07;5.95;;;1.70;;
79126;SDS011;68528;48.814;8.904;2023-10-08T00:12:34;6.80;;;2.47;;
79126;SDS011;68528;48.814;8.904;2023-10-08T00:18:10;4.90;;;2.22;;
79126;SDS011;68528;48.814;8.904;2023-10-08T00:20:37;8.65;;;1.80;;
79126;SDS011;68528;48.814;8.904;2023-10-08T02:33:00;4.82;;;1.90;;
79126;SDS011;68528;48.814;8.904;2023-10-08T03:43:00;8.73;;;1.88;;
79126;SDS011;68528;48.814;8.904;2023-10-08T03:45:57;5.22;;;1.67;;
79126;SDS011;68528;48.814;8.904;2023-10-08T03:48:42;5.95;;;1.80;;
79126;SDS011;68528;48.814;8.904;2023-10-08T03:54:04;4.82;;;2.13;;
79126;SDS011;68528;48.814;8.904;2023-10-08T03:56:46;4.82;;;2.05;;
79126;SDS011;68528;48.814;8.904;2023-10-08T03:59:20;6.53;;;2.35;;
79126;SDS011;68528;48.814;8.904;2023-10-08T04:02:20;5.90;;;2.20;;
79126;SDS011;68528;48.814;8.904;2023-10-08T04:11:52;6.78;;;1.80;;
79126;SDS011;68528;48.814;8.904;2023-10-08T04:14:33;4.82;;;1.73;;
79126;SDS011;68528;48.814;8.904;2023-10-08T04:16:59;7.10;;;1.92;;
79126;SDS011;68528;48.814;8.904;2023-10-08T04:19:25;4.75;;;1.92;;
79126;SDS011;68528;48.814;8.904;2023-10-08T04:21:52;7.88;;;2.40;;
79126;SDS011;68528;48.814;8.904;2023-10-08T04:27:31;4.20;;;1.63;;
79126;SDS011;68528;48.814;8.904;2023-10-08T04:33:38;3.35;;;1.88;;
79126;SDS011;68528;48.814;8.904;2023-10-08T04:36:04;4.50;;;1.90;;
79126;SDS011;68528;48.814;8.904;2023-10-08T04:38:38;5.90;;;1.80;;
79126;SDS011;68528;48.814;8.904;2023-10-08T04:41:18;4.05;;;1.60;;
79126;SDS011;68528;48.814;8.904;2023-10-08T04:47:58;5.43;;;1.70;;
79126;SDS011;68528;48.814;8.904;2023-10-08T04:50:24;5.13;;;2.30;;
79126;SDS011;68528;48.814;8.904;2023-10-08T04:52:55;6.18;;;2.05;;
79126;SDS011;68528;48.814;8.904;2023-10-08T04:55:24;5.88;;;2.10;;
79126;SDS011;68528;48.814;8.904;2023-10-08T04:58:02;8.00;;;2.45;;
79126;SDS011;68528;48.814;8.904;2023-10-08T05:07:31;5.50;;;2.25;;
79126;SDS011;68528;48.814;8.904;2023-10-08T05:10:25;5.68;;;3.33;;
79126;SDS011;68528;48.814;8.904;2023-10-08T05:12:54;5.68;;;2.17;;
79126;SDS011;68528;48.814;8.904;2023-10-08T05:15:28;6.78;;;2.13;;
79126;SDS011;68528;48.814;8.904;2023-10-08T05:18:07;8.02;;;2.17;;
79126;SDS011;68528;48.814;8.904;2023-10-08T05:23:57;6.32;;;1.92;;
79126;SDS011;68528;48.814;8.904;2023-10-08T05:26:38;4.22;;;1.70;;
79126;SDS011;68528;48.814;8.904;2023-10-08T05:29:12;3.80;;;1.70;;
79126;SDS011;68528;48.814;8.904;2023-10-08T05:32:01;3.97;;;1.95;;
79126;SDS011;68528;48.814;8.904;2023-10-08T05:34:50;4.05;;;1.98;;
79126;SDS011;68528;48.814;8.904;2023-10-08T05:41:30;8.95;;;2.65;;
79126;SDS011;68528;48.814;8.904;2023-10-08T05:44:16;4.95;;;1.90;;
79126;SDS011;68528;48.814;8.904;2023-10-08T05:46:44;7.45;;;1.70;;
79126;SDS011;68528;48.814;8.904;2023-10-08T05:49:43;7.20;;;2.00;;
79126;SDS011;68528;48.814;8.904;2023-10-08T05:52:19;5.63;;;2.28;;
79126;SDS011;68528;48.814;8.904;2023-10-08T06:02:34;7.30;;;2.22;;
79126;SDS011;68528;48.814;8.904;2023-10-08T06:05:00;9.15;;;3.08;;
79126;SDS011;68528;48.814;8.904;2023-10-08T06:07:47;6.55;;;2.20;;
79126;SDS011;68528;48.814;8.904;2023-10-08T06:16:15;6.97;;;2.40;;
79126;SDS011;68528;48.814;8.904;2023-10-08T06:19:08;3.85;;;1.95;;
79126;SDS011;68528;48.814;8.904;2023-10-08T06:21:41;5.15;;;2.10;;
79126;SDS011;68528;48.814;8.904;2023-10-08T06:24:08;5.75;;;1.95;;
79126;SDS011;68528;48.814;8.904;2023-10-08T06:26:37;4.97;;;2.55;;
79126;SDS011;68528;48.814;8.904;2023-10-08T06:29:13;6.40;;;2.80;;
79126;SDS011;68528;48.814;8.904;2023-10-08T06:32:02;4.57;;;2.13;;
79126;SDS011;68528;48.814;8.904;2023-10-08T06:34:29;9.77;;;2.38;;
79126;SDS011;68528;48.814;8.904;2023-10-08T06:38:07;5.20;;;2.03;;
79126;SDS011;68528;48.814;8.904;2023-10-08T06:40:35;4.05;;;2.08;;
79126;SDS011;68528;48.814;8.904;2023-10-08T06:43:04;4.53;;;2.10;;
79126;SDS011;68528;48.814;8.904;2023-10-08T06:45:56;7.95;;;1.80;;
79126;SDS011;68528;48.814;8.904;2023-10-08T06:48:23;6.45;;;2.22;;
79126;SDS011;68528;48.814;8.904;2023-10-08T06:57:37;5.57;;;1.95;;
79126;SDS011;68528;48.814;8.904;2023-10-08T07:00:04;7.15;;;2.20;;
79126;SDS011;68528;48.814;8.904;2023-10-08T07:02:37;9.25;;;2.33;;
79126;SDS011;68528;48.814;8.904;2023-10-08T07:05:07;7.13;;;2.08;;
79126;SDS011;68528;48.814;8.904;2023-10-08T07:07:37;5.18;;;2.00;;
79126;SDS011;68528;48.814;8.904;2023-10-08T07:13:45;4.25;;;1.83;;
79126;SDS011;68528;48.814;8.904;2023-10-08T07:16:35;7.68;;;2.20;;
79126;SDS011;68528;48.814;8.904;2023-10-08T07:19:02;10.93;;;3.22;;
79126;SDS011;68528;48.814;8.904;2023-10-08T07:21:28;6.78;;;2.08;;
79126;SDS011;68528;48.814;8.904;2023-10-08T07:23:55;4.15;;;1.92;;
79126;SDS011;68528;48.814;8.904;2023-10-08T07:26:21;6.05;;;2.08;;
79126;SDS011;68528;48.814;8.904;2023-10-08T07:29:01;6.18;;;2.22;;
79126;SDS011;68528;48.814;8.904;2023-10-08T07:31:59;5.10;;;2.22;;
79126;SDS011;68528;48.814;8.904;2023-10-08T07:34:34;8.15;;;2.30;;
79126;SDS011;68528;48.814;8.904;2023-10-08T07:37:08;7.50;;;2.50;;
79126;SDS011;68528;48.814;8.904;2023-10-08T07:39:39;6.00;;;2.30;;
79126;SDS011;68528;48.814;8.904;2023-10-08T07:42:14;5.30;;;2.22;;
79126;SDS011;68528;48.814;8.904;2023-10-08T07:44:40;6.90;;;1.95;;
79126;SDS011;68528;48.814;8.904;2023-10-08T07:47:14;5.70;;;2.30;;
79126;SDS011;68528;48.814;8.904;2023-10-08T07:50:02;7.05;;;2.55;;
79126;SDS011;68528;48.814;8.904;2023-10-08T07:52:55;5.43;;;2.58;;
79126;SDS011;68528;48.814;8.904;2023-10-08T07:58:20;6.38;;;2.08;;
79126;SDS011;68528;48.814;8.904;2023-10-08T08:00:46;5.82;;;2.50;;
79126;SDS011;68528;48.814;8.904;2023-10-08T08:03:19;7.78;;;2.22;;
79126;SDS011;68528;48.814;8.904;2023-10-08T08:08:34;7.40;;;2.55;;
79126;SDS011;68528;48.814;8.904;2023-10-08T08:16:19;7.13;;;2.00;;
79126;SDS011;68528;48.814;8.904;2023-10-08T08:28:59;7.93;;;2.70;;
79126;SDS011;68528;48.814;8.904;2023-10-08T08:31:29;6.15;;;2.85;;
79126;SDS011;68528;48.814;8.904;2023-10-08T08:34:00;7.53;;;2.50;;
79126;SDS011;68528;48.814;8.904;2023-10-08T08:36:39;10.68;;;2.70;;
79126;SDS011;68528;48.814;8.904;2023-10-08T08:39:11;6.03;;;2.45;;
79126;SDS011;68528;48.814;8.904;2023-10-08T08:41:41;8.50;;;2.30;;
79126;SDS011;68528;48.814;8.904;2023-10-08T08:44:31;7.88;;;2.45;;
79126;SDS011;68528;48.814;8.904;2023-10-08T08:53:27;6.57;;;2.33;;
79126;SDS011;68528;48.814;8.904;2023-10-08T08:55:54;5.68;;;2.30;;
79126;SDS011;68528;48.814;8.904;2023-10-08T08:58:33;5.80;;;2.45;;
79126;SDS011;68528;48.814;8.904;2023-10-08T09:04:30;5.82;;;2.42;;
79126;SDS011;68528;48.814;8.904;2023-10-08T09:10:15;7.90;;;2.70;;
79126;SDS011;68528;48.814;8.904;2023-10-08T09:15:36;6.80;;;2.60;;
79126;SDS011;68528;48.814;8.904;2023-10-08T09:43:27;4.60;;;1.98;;
79126;SDS011;68528;48.814;8.904;2023-10-08T09:46:00;6.75;;;2.10;;
79126;SDS011;68528;48.814;8.904;2023-10-08T09:48:35;9.68;;;2.65;;
79126;SDS011;68528;48.814;8.904;2023-10-08T09:51:02;5.93;;;2.10;;
79126;SDS011;68528;48.814;8.904;2023-10-08T09:53:42;6.20;;;2.42;;
79126;SDS011;68528;48.814;8.904;2023-10-08T10:03:21;8.88;;;2.00;;
79126;SDS011;68528;48.814;8.904;2023-10-08T10:16:26;6.65;;;2.78;;
79126;SDS011;68528;48.814;8.904;2023-10-08T10:22:56;12.05;;;2.80;;
79126;SDS011;68528;48.814;8.904;2023-10-08T10:25:33;6.53;;;2.37;;
79126;SDS011;68528;48.814;8.904;2023-10-08T10:36:35;10.57;;;2.40;;
79126;SDS011;68528;48.814;8.904;2023-10-08T10:39:04;12.98;;;2.67;;
79126;SDS011;68528;48.814;8.904;2023-10-08T10:41:41;9.63;;;2.90;;
79126;SDS011;68528;48.814;8.904;2023-10-08T10:44:13;8.93;;;2.38;;
79126;SDS011;68528;48.814;8.904;2023-10-08T10:46:43;11.00;;;2.42;;
79126;SDS011;68528;48.814;8.904;2023-10-08T11:19:48;9.55;;;2.90;;
79126;SDS011;68528;48.814;8.904;2023-10-08T11:22:14;8.95;;;2.40;;
79126;SDS011;68528;48.814;8.904;2023-10-08T11:24:46;11.50;;;2.85;;
79126;SDS011;68528;48.814;8.904;2023-10-08T11:33:47;9.13;;;2.42;;
79126;SDS011;68528;48.814;8.904;2023-10-08T11:36:23;7.28;;;2.50;;
79126;SDS011;68528;48.814;8.904;2023-10-08T11:38:56;8.98;;;3.10;;
79126;SDS011;68528;48.814;8.904;2023-10-08T11:41:31;7.97;;;2.92;;
79126;SDS011;68528;48.814;8.904;2023-10-08T11:44:09;12.40;;;2.80;;
79126;SDS011;68528;48.814;8.904;2023-10-08T11:49:59;9.05;;;2.60;;
79126;SDS011;68528;48.814;8.904;2023-10-08T11:52:35;10.13;;;3.55;;
79126;SDS011;68528;48.814;8.904;2023-10-08T11:55:07;12.55;;;3.65;;
79126;SDS011;68528;48.814;8.904;2023-10-08T11:57:46;11.25;;;3.28;;
79126;SDS011;68528;48.814;8.904;2023-10-08T12:00:14;10.10;;;2.60;;
79126;SDS011;68528;48.814;8.904;2023-10-08T12:08:48;11.10;;;2.72;;
79126;SDS011;68528;48.814;8.904;2023-10-08T12:11:38;15.57;;;3.13;;
79126;SDS011;68528;48.814;8.904;2023-10-08T12:14:09;15.63;;;3.53;;
79126;SDS011;68528;48.814;8.904;2023-10-08T12:16:45;10.88;;;2.80;;
79126;SDS011;68528;48.814;8.904;2023-10-08T12:19:10;16.80;;;2.88;;
79126;SDS011;68528;48.814;8.904;2023-10-08T12:25:08;11.23;;;2.80;;
79126;SDS011;68528;48.814;8.904;2023-10-08T12:27:38;10.60;;;2.83;;
79126;SDS011;68528;48.814;8.904;2023-10-08T12:30:04;11.88;;;2.85;;
79126;SDS011;68528;48.814;8.904;2023-10-08T12:32:35;15.25;;;3.95;;
79126;SDS011;68528;48.814;8.904;2023-10-08T12:35:02;7.60;;;2.83;;
79126;SDS011;68528;48.814;8.904;2023-10-08T12:37:28;12.15;;;3.08;;
79126;SDS011;68528;48.814;8.904;2023-10-08T13:05:24;15.23;;;2.55;;
79126;SDS011;68528;48.814;8.904;2023-10-08T13:07:56;10.70;;;2.38;;
79126;SDS011;68528;48.814;8.904;2023-10-08T13:10:25;13.93;;;3.15;;
79126;SDS011;68528;48.814;8.904;2023-10-08T13:12:51;13.38;;;2.10;;
79126;SDS011;68528;48.814;8.904;2023-10-08T13:15:17;6.85;;;2.80;;
79126;SDS011;68528;48.814;8.904;2023-10-08T13:21:06;13.23;;;2.45;;
79126;SDS011;68528;48.814;8.904;2023-10-08T13:24:25;13.20;;;4.07;;
79126;SDS011;68528;48.814;8.904;2023-10-08T13:26:54;12.50;;;2.33;;
79126;SDS011;68528;48.814;8.904;2023-10-08T13:29:23;10.40;;;2.83;;
79126;SDS011;68528;48.814;8.904;2023-10-08T13:31:51;10.15;;;2.35;;
79126;SDS011;68528;48.814;8.904;2023-10-08T13:34:22;10.50;;;2.38;;
79126;SDS011;68528;48.814;8.904;2023-10-08T13:36:48;10.10;;;2.58;;
79126;SDS011;68528;48.814;8.904;2023-10-08T13:42:40;9.38;;;2.50;;
79126;SDS011;68528;48.814;8.904;2023-10-08T13:45:09;13.05;;;2.92;;
79126;SDS011;68528;48.814;8.904;2023-10-08T13:47:34;11.23;;;2.70;;
79126;SDS011;68528;48.814;8.904;2023-10-08T13:50:00;10.55;;;2.30;;
79126;SDS011;68528;48.814;8.904;2023-10-08T13:52:35;10.85;;;2.90;;
79126;SDS011;68528;48.814;8.904;2023-10-08T13:55:08;9.00;;;2.00;;
79126;SDS011;68528;48.814;8.904;2023-10-08T13:58:32;12.65;;;3.10;;
79126;SDS011;68528;48.814;8.904;2023-10-08T14:01:15;17.70;;;2.63;;
79126;SDS011;68528;48.814;8.904;2023-10-08T14:03:52;8.63;;;2.67;;
79126;SDS011;68528;48.814;8.904;2023-10-08T14:06:28;9.00;;;3.92;;
79126;SDS011;68528;48.814;8.904;2023-10-08T14:08:57;11.45;;;2.10;;
79126;SDS011;68528;48.814;8.904;2023-10-08T14:11:26;10.50;;;3.28;;
79126;SDS011;68528;48.814;8.904;2023-10-08T14:17:32;11.48;;;2.88;;
79126;SDS011;68528;48.814;8.904;2023-10-08T14:20:39;12.07;;;3.17;;
79126;SDS011;68528;48.814;8.904;2023-10-08T14:23:07;16.27;;;3.13;;
79126;SDS011;68528;48.814;8.904;2023-10-08T14:25:33;6.40;;;2.38;;
79126;SDS011;68528;48.814;8.904;2023-10-08T14:28:07;12.50;;;2.55;;
79126;SDS011;68528;48.814;8.904;2023-10-08T14:30:33;12.50;;;3.13;;
79126;SDS011;68528;48.814;8.904;2023-10-08T14:36:30;11.85;;;2.70;;
79126;SDS011;68528;48.814;8.904;2023-10-08T14:39:20;10.35;;;2.30;;
79126;SDS011;68528;48.814;8.904;2023-10-08T14:42:14;6.80;;;2.80;;
79126;SDS011;68528;48.814;8.904;2023-10-08T14:44:59;12.85;;;2.83;;
79126;SDS011;68528;48.814;8.904;2023-10-08T14:47:25;12.13;;;2.65;;
79126;SDS011;68528;48.814;8.904;2023-10-08T15:21:27;11.93;;;3.10;;
79126;SDS011;68528;48.814;8.904;2023-10-08T15:57:53;9.57;;;2.50;;
79126;SDS011;68528;48.814;8.904;2023-10-08T16:00:19;14.40;;;2.95;;
79126;SDS011;68528;48.814;8.904;2023-10-08T16:08:58;9.07;;;3.15;;
79126;SDS011;68528;48.814;8.904;2023-10-08T16:11:25;9.18;;;3.38;;
79126;SDS011;68528;48.814;8.904;2023-10-08T16:13:51;10.02;;;2.50;;
79126;SDS011;68528;48.814;8.904;2023-10-08T16:16:16;8.85;;;2.70;;
79126;SDS011;68528;48.814;8.904;2023-10-08T16:18:42;14.65;;;3.22;;
79126;SDS011;68528;48.814;8.904;2023-10-08T16:27:04;13.80;;;2.97;;
79126;SDS011;68528;48.814;8.904;2023-10-08T16:32:01;13.48;;;2.40;;
79126;SDS011;68528;48.814;8.904;2023-10-08T16:34:28;10.20;;;2.55;;
79126;SDS011;68528;48.814;8.904;2023-10-08T16:36:54;8.18;;;3.13;;
79126;SDS011;68528;48.814;8.904;2023-10-08T16:45:41;10.07;;;3.65;;
79126;SDS011;68528;48.814;8.904;2023-10-08T16:48:08;9.27;;;2.65;;
79126;SDS011;68528;48.814;8.904;2023-10-08T16:50:55;15.48;;;3.08;;
79126;SDS011;68528;48.814;8.904;2023-10-08T16:53:54;14.05;;;3.22;;
79126;SDS011;68528;48.814;8.904;2023-10-08T17:23:16;13.95;;;3.50;;
79126;SDS011;68528;48.814;8.904;2023-10-08T17:25:58;13.73;;;3.33;;
79126;SDS011;68528;48.814;8.904;2023-10-08T17:31:31;11.35;;;2.97;;
79126;SDS011;68528;48.814;8.904;2023-10-08T17:33:59;12.18;;;4.45;;
79126;SDS011;68528;48.814;8.904;2023-10-08T17:40:17;12.32;;;3.28;;
79126;SDS011;68528;48.814;8.904;2023-10-08T17:42:47;15.98;;;3.40;;
79126;SDS011;68528;48.814;8.904;2023-10-08T17:45:13;8.23;;;2.60;;
79126;SDS011;68528;48.814;8.904;2023-10-08T17:47:39;14.60;;;3.38;;
79126;SDS011;68528;48.814;8.904;2023-10-08T17:50:06;14.70;;;3.45;;
79126;SDS011;68528;48.814;8.904;2023-10-08T17:52:32;10.63;;;3.05;;
79126;SDS011;68528;48.814;8.904;2023-10-08T17:58:12;9.48;;;4.03;;
79126;SDS011;68528;48.814;8.904;2023-10-08T18:00:40;11.32;;;3.58;;
79126;SDS011;68528;48.814;8.904;2023-10-08T18:03:08;11.80;;;2.63;;
79126;SDS011;68528;48.814;8.904;2023-10-08T18:05:33;12.73;;;3.65;;
79126;SDS011;68528;48.814;8.904;2023-10-08T18:07:59;9.73;;;3.58;;
79126;SDS011;68528;48.814;8.904;2023-10-08T18:10:34;9.60;;;2.85;;
79126;SDS011;68528;48.814;8.904;2023-10-08T18:18:24;11.90;;;3.33;;
79126;SDS011;68528;48.814;8.904;2023-10-08T18:21:12;15.65;;;3.20;;
79126;SDS011;68528;48.814;8.904;2023-10-08T18:23:43;9.80;;;3.53;;
79126;SDS011;68528;48.814;8.904;2023-10-08T18:26:10;11.30;;;3.22;;
79126;SDS011;68528;48.814;8.904;2023-10-08T18:28:39;8.35;;;3.05;;
79126;SDS011;68528;48.814;8.904;2023-10-08T18:48:08;8.73;;;2.78;;
79126;SDS011;68528;48.814;8.904;2023-10-08T19:20:47;14.70;;;3.10;;
79126;SDS011;68528;48.814;8.904;2023-10-08T19:23:14;8.10;;;3.80;;
79126;SDS011;68528;48.814;8.904;2023-10-08T20:26:11;15.43;;;5.03;;
79126;SDS011;68528;48.814;8.904;2023-10-08T20:28:38;8.73;;;4.50;;
79126;SDS011;68528;48.814;8.904;2023-10-08T20:31:04;13.73;;;5.35;;
79126;SDS011;68528;48.814;8.904;2023-10-08T20:33:31;11.30;;;3.42;;
79126;SDS011;68528;48.814;8.904;2023-10-08T20:35:57;16.38;;;3.38;;
79126;SDS011;68528;48.814;8.904;2023-10-08T20:38:28;12.18;;;3.45;;
79126;SDS011;68528;48.814;8.904;2023-10-08T20:43:46;7.35;;;3.33;;
79126;SDS011;68528;48.814;8.904;2023-10-08T20:46:15;9.00;;;3.03;;
79126;SDS011;68528;48.814;8.904;2023-10-08T20:48:41;8.70;;;2.83;;
79126;SDS011;68528;48.814;8.904;2023-10-08T20:51:09;10.88;;;3.70;;
79126;SDS011;68528;48.814;8.904;2023-10-08T20:53:34;9.10;;;3.38;;
79126;SDS011;68528;48.814;8.904;2023-10-08T20:56:04;11.63;;;3.40;;
79126;SDS011;68528;48.814;8.904;2023-10-08T20:58:48;9.88;;;2.88;;
79126;SDS011;68528;48.814;8.904;2023-10-08T21:04:57;12.02;;;3.85;;
79126;SDS011;68528;48.814;8.904;2023-10-08T21:07:24;16.80;;;3.47;;
79126;SDS011;68528;48.814;8.904;2023-10-08T21:09:49;9.48;;;3.13;;
79126;SDS011;68528;48.814;8.904;2023-10-08T21:12:21;10.98;;;3.90;;
79126;SDS011;68528;48.814;8.904;2023-10-08T21:39:37;13.73;;;3.38;;
79126;SDS011;68528;48.814;8.904;2023-10-08T21:42:03;12.70;;;3.17;;
79126;SDS011;68528;48.814;8.904;2023-10-08T21:44:29;9.60;;;3.10;;
79126;SDS011;68528;48.814;8.904;2023-10-08T21:46:54;10.15;;;3.35;;
79126;SDS011;68528;48.814;8.904;2023-10-08T21:49:21;12.15;;;2.85;;
79126;SDS011;68528;48.814;8.904;2023-10-08T21:58:12;9.35;;;3.50;;
79126;SDS011;68528;48.814;8.904;2023-10-08T22:00:58;12.02;;;3.72;;
79126;SDS011;68528;48.814;8.904;2023-10-08T22:03:48;10.00;;;3.53;;
79126;SDS011;68528;48.814;8.904;2023-10-08T22:06:16;13.48;;;3.35;;
79126;SDS011;68528;48.814;8.904;2023-10-08T22:08:41;16.90;;;4.35;;
79126;SDS011;68528;48.814;8.904;2023-10-08T22:29:41;10.18;;;3.33;;
79126;SDS011;68528;48.814;8.904;2023-10-08T22:35:44;17.88;;;4.00;;
79126;SDS011;68528;48.814;8.904;2023-10-08T22:57:02;11.68;;;3.55;;
79126;SDS011;68528;48.814;8.904;2023-10-08T22:59:35;11.85;;;2.95;;
79126;SDS011;68528;48.814;8.904;2023-10-08T23:02:13;15.25;;;3.20;;
79126;SDS011;68528;48.814;8.904;2023-10-08T23:04:40;12.85;;;4.35;;
79126;SDS011;68528;48.814;8.904;2023-10-08T23:10:27;11.75;;;3.30;;
79126;SDS011;68528;48.814;8.904;2023-10-08T23:12:52;16.10;;;3.67;;
79126;SDS011;68528;48.814;8.904;2023-10-08T23:15:21;13.82;;;4.45;;
79126;SDS011;68528;48.814;8.904;2023-10-08T23:17:48;12.48;;;3.13;;
79126;SDS011;68528;48.814;8.904;2023-10-08T23:20:15;11.82;;;3.17;;
79126;SDS011;68528;48.814;8.904;2023-10-08T23:22:40;15.30;;;3.45;;
79126;SDS011;68528;48.814;8.904;2023-10-08T23:30:44;17.23;;;4.13;;
79126;SDS011;68528;48.814;8.904;2023-10-08T23:33:11;13.40;;;4.03;;
79126;SDS011;68528;48.814;8.904;2023-10-08T23:35:38;11.88;;;3.10;;
79126;SDS011;68528;48.814;8.904;2023-10-08T23:38:08;13.70;;;3.97;;
79126;SDS011;68528;48.814;8.904;2023-10-08T23:40:43;11.05;;;3.95;;
79126;SDS011;68528;48.814;8.904;2023-10-08T23:46:28;18.48;;;3.90;;
79126;SDS011;68528;48.814;8.904;2023-10-08T23:49:01;12.63;;;4.22;;
79126;SDS011;68528;48.814;8.904;2023-10-08T23:51:42;13.80;;;4.20;;
79126;SDS011;68528;48.814;8.904;2023-10-08T23:54:07;16.38;;;4.13;;
79126;SDS011;68528;48.814;8.904;2023-10-08T23:56:48;16.58;;;3.42;;
79126;SDS011;68528;48.814;8.904;2023-10-08T23:59:15;14.40;;;3.60;;
